Colon, MI (49040)

2:38 AM EDT on July 26, 2016 (GMT -0400)
The Point | | Change Station

Elev 837 ft 41.98 °N, 85.50 °W | Updated 11 minutes ago

Clear
Clear
66.2 °F
Feels Like 66.2 °F
N
0.0
Wind Variable Wind from North

Today
High -- | Low -- °F
--% Chance of Precip.
Yesterday
High -- | Low -- °F
Precip. -- in
Pressure 30.03 in
Visibility 10.0 miles
Clouds Clear
Dew Point 63 °F
Humidity 90%
Rainfall 0.00 in
Snow Depth Not available.
6:29 AM 9:05 PM
Waning Gibbous, 58% visible
METAR KIRS 260634Z AUTO 36003KT 10SM CLR 17/17 A3003 RMK AO2 T01710166
Pressure 30.03 in
Visibility 10.0 miles
Clouds Clear
Dew Point 63 °F
Humidity 90%
Rainfall 0.00 in
Snow Depth Not available.
6:29 AM 9:05 PM
Waning Gibbous, 58% visible
METAR KIRS 260634Z AUTO 36003KT 10SM CLR 17/17 A3003 RMK AO2 T01710166

10-Day Weather Forecast

Almanac

Astronomy

Jul. 26, 2016 Rise Set
Actual Time
Civil Twilight
Nautical Twilight
Astronomical Twilight
Moon
Length of Visible Light
Length of Day
Tomorrow will be .
, % of the Moon is Illuminated

Today's Extremes

State Highs State Lows

Community

WunderPhotos

Upload Photos

1,927,551 photos uploaded!

WunderBlog® & News

Nearby

Air Quality

  Air Quality AQ Index Pollutant
Not available.

Snow Depth

Station Depth Elevation

Earthquake Activity

City Distance Mag. Time & Date
Minimum magnitude displayed is 2.5.

Coastal Water Temperatures

Place Temperature

Stations

Nearby Weather Stations

Station Location Temp. Windchill Dew Point Humidity Wind Precip. Elev Updated Type
                   

Watches & Warnings

There are currently no watches in effect.